sensor_id;sensor_type;location;lat;lon;timestamp;temperature;humidity
38854;DHT22;24606;51.992;4.198;2022-07-29T00:00:28;27.70;44.30
38854;DHT22;24606;51.992;4.198;2022-07-29T00:05:31;27.60;44.30
38854;DHT22;24606;51.992;4.198;2022-07-29T00:10:33;27.60;44.30
38854;DHT22;24606;51.992;4.198;2022-07-29T00:15:35;27.60;44.40
38854;DHT22;24606;51.992;4.198;2022-07-29T00:20:38;27.50;44.30
38854;DHT22;24606;51.992;4.198;2022-07-29T00:25:40;27.50;44.30
38854;DHT22;24606;51.992;4.198;2022-07-29T00:30:42;27.50;44.50
38854;DHT22;24606;51.992;4.198;2022-07-29T00:35:45;27.50;44.50
38854;DHT22;24606;51.992;4.198;2022-07-29T00:40:48;27.40;44.50
38854;DHT22;24606;51.992;4.198;2022-07-29T00:45:50;27.40;44.50
38854;DHT22;24606;51.992;4.198;2022-07-29T00:50:53;27.40;44.50
38854;DHT22;24606;51.992;4.198;2022-07-29T00:55:55;27.40;44.60
38854;DHT22;24606;51.992;4.198;2022-07-29T01:00:57;27.30;44.50
38854;DHT22;24606;51.992;4.198;2022-07-29T01:06:01;27.30;44.60
38854;DHT22;24606;51.992;4.198;2022-07-29T01:11:03;27.30;44.60
38854;DHT22;24606;51.992;4.198;2022-07-29T01:16:09;27.30;44.60
38854;DHT22;24606;51.992;4.198;2022-07-29T01:21:24;27.20;44.70
38854;DHT22;24606;51.992;4.198;2022-07-29T01:26:38;27.20;44.60
38854;DHT22;24606;51.992;4.198;2022-07-29T01:31:48;27.20;44.70
38854;DHT22;24606;51.992;4.198;2022-07-29T01:37:00;27.10;45.30
38854;DHT22;24606;51.992;4.198;2022-07-29T01:42:06;27.20;44.80
38854;DHT22;24606;51.992;4.198;2022-07-29T01:47:14;27.10;44.80
38854;DHT22;24606;51.992;4.198;2022-07-29T01:52:21;27.10;44.80
38854;DHT22;24606;51.992;4.198;2022-07-29T01:57:29;27.10;44.70
38854;DHT22;24606;51.992;4.198;2022-07-29T02:02:35;27.00;44.90
38854;DHT22;24606;51.992;4.198;2022-07-29T02:07:40;27.00;44.80
38854;DHT22;24606;51.992;4.198;2022-07-29T02:12:44;27.00;44.90
38854;DHT22;24606;51.992;4.198;2022-07-29T02:17:51;27.00;45.00
38854;DHT22;24606;51.992;4.198;2022-07-29T02:22:55;27.00;45.00
38854;DHT22;24606;51.992;4.198;2022-07-29T02:27:59;26.90;45.00
38854;DHT22;24606;51.992;4.198;2022-07-29T02:33:04;26.90;45.00
38854;DHT22;24606;51.992;4.198;2022-07-29T02:38:07;26.90;45.00
38854;DHT22;24606;51.992;4.198;2022-07-29T02:43:28;26.90;45.10
38854;DHT22;24606;51.992;4.198;2022-07-29T02:48:37;26.90;45.10
38854;DHT22;24606;51.992;4.198;2022-07-29T02:53:41;26.80;45.00
38854;DHT22;24606;51.992;4.198;2022-07-29T02:58:52;26.80;45.00
38854;DHT22;24606;51.992;4.198;2022-07-29T03:03:56;26.80;45.10
38854;DHT22;24606;51.992;4.198;2022-07-29T03:08:59;26.80;45.10
38854;DHT22;24606;51.992;4.198;2022-07-29T03:14:02;26.70;45.10
38854;DHT22;24606;51.992;4.198;2022-07-29T03:19:05;26.70;45.10
38854;DHT22;24606;51.992;4.198;2022-07-29T03:24:07;26.70;45.20
38854;DHT22;24606;51.992;4.198;2022-07-29T03:29:09;26.70;45.20
38854;DHT22;24606;51.992;4.198;2022-07-29T03:34:12;26.70;45.20
38854;DHT22;24606;51.992;4.198;2022-07-29T03:39:17;26.70;45.20
38854;DHT22;24606;51.992;4.198;2022-07-29T03:44:21;26.60;45.20
38854;DHT22;24606;51.992;4.198;2022-07-29T03:49:25;26.60;45.20
38854;DHT22;24606;51.992;4.198;2022-07-29T03:54:27;26.60;45.20
38854;DHT22;24606;51.992;4.198;2022-07-29T03:59:30;26.60;45.30
38854;DHT22;24606;51.992;4.198;2022-07-29T04:04:35;26.60;45.30
38854;DHT22;24606;51.992;4.198;2022-07-29T04:09:37;26.50;45.20
38854;DHT22;24606;51.992;4.198;2022-07-29T04:14:39;26.50;45.30
38854;DHT22;24606;51.992;4.198;2022-07-29T04:19:42;26.50;45.30
38854;DHT22;24606;51.992;4.198;2022-07-29T04:24:44;26.50;45.30
38854;DHT22;24606;51.992;4.198;2022-07-29T04:29:46;26.40;45.30
38854;DHT22;24606;51.992;4.198;2022-07-29T04:34:49;26.40;45.30
38854;DHT22;24606;51.992;4.198;2022-07-29T04:39:51;26.40;45.40
38854;DHT22;24606;51.992;4.198;2022-07-29T04:44:53;26.40;45.40
38854;DHT22;24606;51.992;4.198;2022-07-29T04:49:56;26.40;45.30
38854;DHT22;24606;51.992;4.198;2022-07-29T04:54:59;26.40;45.30
38854;DHT22;24606;51.992;4.198;2022-07-29T05:00:01;26.40;45.30
38854;DHT22;24606;51.992;4.198;2022-07-29T05:05:04;26.40;45.40
38854;DHT22;24606;51.992;4.198;2022-07-29T05:10:07;26.40;45.40
38854;DHT22;24606;51.992;4.198;2022-07-29T05:15:09;26.40;45.40
38854;DHT22;24606;51.992;4.198;2022-07-29T05:20:13;26.30;45.30
38854;DHT22;24606;51.992;4.198;2022-07-29T05:25:15;26.40;45.90
38854;DHT22;24606;51.992;4.198;2022-07-29T05:30:16;26.40;45.20
38854;DHT22;24606;51.992;4.198;2022-07-29T05:35:20;26.40;45.00
38854;DHT22;24606;51.992;4.198;2022-07-29T05:40:22;26.40;45.10
38854;DHT22;24606;51.992;4.198;2022-07-29T05:45:24;26.40;45.20
38854;DHT22;24606;51.992;4.198;2022-07-29T05:50:27;26.40;45.20
38854;DHT22;24606;51.992;4.198;2022-07-29T05:55:29;26.30;45.10
38854;DHT22;24606;51.992;4.198;2022-07-29T06:00:31;26.30;45.20
38854;DHT22;24606;51.992;4.198;2022-07-29T06:05:34;26.30;45.20
38854;DHT22;24606;51.992;4.198;2022-07-29T06:10:36;26.30;45.30
38854;DHT22;24606;51.992;4.198;2022-07-29T06:15:38;26.20;45.20
38854;DHT22;24606;51.992;4.198;2022-07-29T06:20:41;26.30;45.20
38854;DHT22;24606;51.992;4.198;2022-07-29T06:25:43;26.30;45.10
38854;DHT22;24606;51.992;4.198;2022-07-29T06:30:45;26.30;45.00
38854;DHT22;24606;51.992;4.198;2022-07-29T06:35:48;26.30;44.90
38854;DHT22;24606;51.992;4.198;2022-07-29T06:40:50;26.30;44.80
38854;DHT22;24606;51.992;4.198;2022-07-29T06:46:07;26.30;44.80
38854;DHT22;24606;51.992;4.198;2022-07-29T06:51:11;26.30;44.80
38854;DHT22;24606;51.992;4.198;2022-07-29T06:56:13;26.50;44.50
38854;DHT22;24606;51.992;4.198;2022-07-29T07:01:15;26.60;44.20
38854;DHT22;24606;51.992;4.198;2022-07-29T07:06:18;26.70;44.10
38854;DHT22;24606;51.992;4.198;2022-07-29T07:11:20;26.70;44.00
38854;DHT22;24606;51.992;4.198;2022-07-29T07:16:22;26.70;44.00
38854;DHT22;24606;51.992;4.198;2022-07-29T07:21:25;26.60;44.20
38854;DHT22;24606;51.992;4.198;2022-07-29T07:26:28;26.60;44.10
38854;DHT22;24606;51.992;4.198;2022-07-29T07:31:29;26.80;44.00
38854;DHT22;24606;51.992;4.198;2022-07-29T07:36:33;26.80;43.90
38854;DHT22;24606;51.992;4.198;2022-07-29T07:41:35;26.80;43.90
38854;DHT22;24606;51.992;4.198;2022-07-29T07:46:36;26.90;43.90
38854;DHT22;24606;51.992;4.198;2022-07-29T07:51:40;26.90;43.80
38854;DHT22;24606;51.992;4.198;2022-07-29T07:56:41;26.90;43.80
38854;DHT22;24606;51.992;4.198;2022-07-29T08:01:43;26.90;43.80
38854;DHT22;24606;51.992;4.198;2022-07-29T08:06:46;26.90;43.80
38854;DHT22;24606;51.992;4.198;2022-07-29T08:11:50;27.00;43.90
38854;DHT22;24606;51.992;4.198;2022-07-29T08:16:52;27.00;43.90
38854;DHT22;24606;51.992;4.198;2022-07-29T08:21:55;27.00;43.90
38854;DHT22;24606;51.992;4.198;2022-07-29T08:26:57;27.00;44.00
38854;DHT22;24606;51.992;4.198;2022-07-29T08:31:59;27.00;44.00
38854;DHT22;24606;51.992;4.198;2022-07-29T08:37:02;27.00;43.90
38854;DHT22;24606;51.992;4.198;2022-07-29T08:42:05;27.00;43.90
38854;DHT22;24606;51.992;4.198;2022-07-29T08:47:07;27.00;44.00
38854;DHT22;24606;51.992;4.198;2022-07-29T08:52:11;27.00;44.10
38854;DHT22;24606;51.992;4.198;2022-07-29T08:57:14;27.00;44.10
38854;DHT22;24606;51.992;4.198;2022-07-29T09:02:19;27.00;44.10
38854;DHT22;24606;51.992;4.198;2022-07-29T09:07:23;27.10;44.30
38854;DHT22;24606;51.992;4.198;2022-07-29T09:12:25;27.10;44.30
38854;DHT22;24606;51.992;4.198;2022-07-29T09:17:42;27.10;44.40
38854;DHT22;24606;51.992;4.198;2022-07-29T09:22:46;27.10;44.40
38854;DHT22;24606;51.992;4.198;2022-07-29T09:27:50;27.50;45.70
38854;DHT22;24606;51.992;4.198;2022-07-29T09:32:56;27.60;45.60
38854;DHT22;24606;51.992;4.198;2022-07-29T09:38:10;27.30;45.40
38854;DHT22;24606;51.992;4.198;2022-07-29T09:43:13;27.10;46.20
38854;DHT22;24606;51.992;4.198;2022-07-29T09:48:17;27.20;45.50
38854;DHT22;24606;51.992;4.198;2022-07-29T09:53:32;27.30;45.60
38854;DHT22;24606;51.992;4.198;2022-07-29T09:58:33;27.30;45.60
38854;DHT22;24606;51.992;4.198;2022-07-29T10:03:50;27.30;45.80
38854;DHT22;24606;51.992;4.198;2022-07-29T10:08:54;27.30;45.60
38854;DHT22;24606;51.992;4.198;2022-07-29T10:14:08;27.40;45.50
38854;DHT22;24606;51.992;4.198;2022-07-29T10:19:09;27.40;45.50
38854;DHT22;24606;51.992;4.198;2022-07-29T10:24:13;27.50;45.40
38854;DHT22;24606;51.992;4.198;2022-07-29T10:29:15;27.50;45.50
38854;DHT22;24606;51.992;4.198;2022-07-29T10:34:26;27.60;48.30
38854;DHT22;24606;51.992;4.198;2022-07-29T10:39:42;27.60;46.20
38854;DHT22;24606;51.992;4.198;2022-07-29T10:44:47;27.70;46.00
38854;DHT22;24606;51.992;4.198;2022-07-29T10:49:57;27.10;48.60
38854;DHT22;24606;51.992;4.198;2022-07-29T10:55:01;27.50;47.40
38854;DHT22;24606;51.992;4.198;2022-07-29T11:00:28;27.00;48.70
38854;DHT22;24606;51.992;4.198;2022-07-29T11:05:30;27.30;47.80
38854;DHT22;24606;51.992;4.198;2022-07-29T11:17:07;27.60;47.50
38854;DHT22;24606;51.992;4.198;2022-07-29T11:22:10;27.90;46.80
38854;DHT22;24606;51.992;4.198;2022-07-29T11:27:15;27.90;46.50
38854;DHT22;24606;51.992;4.198;2022-07-29T11:32:18;28.00;46.30
38854;DHT22;24606;51.992;4.198;2022-07-29T11:37:21;28.10;46.00
38854;DHT22;24606;51.992;4.198;2022-07-29T11:42:46;28.20;46.00
38854;DHT22;24606;51.992;4.198;2022-07-29T11:47:51;28.20;45.90
38854;DHT22;24606;51.992;4.198;2022-07-29T11:52:54;28.20;45.90
38854;DHT22;24606;51.992;4.198;2022-07-29T11:57:59;28.30;45.80
38854;DHT22;24606;51.992;4.198;2022-07-29T12:03:02;28.30;45.70
38854;DHT22;24606;51.992;4.198;2022-07-29T12:08:07;28.40;45.60
38854;DHT22;24606;51.992;4.198;2022-07-29T12:13:10;28.40;45.60
38854;DHT22;24606;51.992;4.198;2022-07-29T12:18:14;28.50;45.60
38854;DHT22;24606;51.992;4.198;2022-07-29T12:23:16;28.50;45.50
38854;DHT22;24606;51.992;4.198;2022-07-29T12:28:21;28.50;45.70
38854;DHT22;24606;51.992;4.198;2022-07-29T12:33:24;28.50;45.70
38854;DHT22;24606;51.992;4.198;2022-07-29T12:38:27;28.00;46.70
38854;DHT22;24606;51.992;4.198;2022-07-29T12:43:31;27.70;47.40
38854;DHT22;24606;51.992;4.198;2022-07-29T12:48:34;27.10;48.30
38854;DHT22;24606;51.992;4.198;2022-07-29T12:53:36;26.60;50.00
38854;DHT22;24606;51.992;4.198;2022-07-29T12:58:41;27.40;48.50
38854;DHT22;24606;51.992;4.198;2022-07-29T13:03:49;27.80;48.10
38854;DHT22;24606;51.992;4.198;2022-07-29T13:08:59;27.80;48.30
38854;DHT22;24606;51.992;4.198;2022-07-29T13:14:03;28.30;47.50
38854;DHT22;24606;51.992;4.198;2022-07-29T13:19:08;28.50;46.60
38854;DHT22;24606;51.992;4.198;2022-07-29T13:24:10;28.50;46.80
38854;DHT22;24606;51.992;4.198;2022-07-29T13:29:13;28.80;46.60
38854;DHT22;24606;51.992;4.198;2022-07-29T13:34:15;28.90;46.70
38854;DHT22;24606;51.992;4.198;2022-07-29T13:39:19;29.10;47.40
38854;DHT22;24606;51.992;4.198;2022-07-29T13:44:22;29.20;47.50
38854;DHT22;24606;51.992;4.198;2022-07-29T13:49:24;29.10;47.50
38854;DHT22;24606;51.992;4.198;2022-07-29T13:54:26;29.40;47.60
38854;DHT22;24606;51.992;4.198;2022-07-29T13:59:30;29.40;48.00
38854;DHT22;24606;51.992;4.198;2022-07-29T14:04:32;29.50;47.70
38854;DHT22;24606;51.992;4.198;2022-07-29T14:09:34;29.60;48.20
38854;DHT22;24606;51.992;4.198;2022-07-29T14:14:37;29.20;47.90
38854;DHT22;24606;51.992;4.198;2022-07-29T14:19:39;29.50;47.40
38854;DHT22;24606;51.992;4.198;2022-07-29T14:24:41;29.60;47.60
38854;DHT22;24606;51.992;4.198;2022-07-29T14:29:44;29.70;47.70
38854;DHT22;24606;51.992;4.198;2022-07-29T14:34:46;29.80;48.40
38854;DHT22;24606;51.992;4.198;2022-07-29T14:39:48;28.70;45.30
38854;DHT22;24606;51.992;4.198;2022-07-29T14:44:52;27.80;49.40
38854;DHT22;24606;51.992;4.198;2022-07-29T14:49:54;28.80;47.70
38854;DHT22;24606;51.992;4.198;2022-07-29T14:54:56;29.20;47.40
38854;DHT22;24606;51.992;4.198;2022-07-29T14:59:59;29.50;47.10
38854;DHT22;24606;51.992;4.198;2022-07-29T15:05:01;29.50;47.10
38854;DHT22;24606;51.992;4.198;2022-07-29T15:10:03;29.70;47.20
38854;DHT22;24606;51.992;4.198;2022-07-29T15:15:07;29.80;47.60
38854;DHT22;24606;51.992;4.198;2022-07-29T15:20:09;29.90;47.30
38854;DHT22;24606;51.992;4.198;2022-07-29T15:25:12;29.90;48.10
38854;DHT22;24606;51.992;4.198;2022-07-29T15:30:15;30.00;47.50
38854;DHT22;24606;51.992;4.198;2022-07-29T15:35:18;30.00;48.30
38854;DHT22;24606;51.992;4.198;2022-07-29T15:40:19;30.00;47.40
38854;DHT22;24606;51.992;4.198;2022-07-29T15:45:23;30.10;48.10
38854;DHT22;24606;51.992;4.198;2022-07-29T15:50:25;30.20;47.50
38854;DHT22;24606;51.992;4.198;2022-07-29T15:55:26;30.20;47.60
38854;DHT22;24606;51.992;4.198;2022-07-29T16:00:30;30.20;47.90
38854;DHT22;24606;51.992;4.198;2022-07-29T16:05:31;30.20;47.10
38854;DHT22;24606;51.992;4.198;2022-07-29T16:10:34;30.30;48.80
38854;DHT22;24606;51.992;4.198;2022-07-29T16:15:37;30.50;48.80
38854;DHT22;24606;51.992;4.198;2022-07-29T16:20:39;30.50;48.10
38854;DHT22;24606;51.992;4.198;2022-07-29T16:25:41;30.60;48.00
38854;DHT22;24606;51.992;4.198;2022-07-29T16:30:45;30.60;49.10
38854;DHT22;24606;51.992;4.198;2022-07-29T16:35:47;30.70;48.70
38854;DHT22;24606;51.992;4.198;2022-07-29T16:40:49;30.70;48.60
38854;DHT22;24606;51.992;4.198;2022-07-29T16:45:52;30.70;49.00
38854;DHT22;24606;51.992;4.198;2022-07-29T16:50:54;30.80;48.50
38854;DHT22;24606;51.992;4.198;2022-07-29T16:55:55;30.90;49.20
38854;DHT22;24606;51.992;4.198;2022-07-29T17:00:59;30.90;49.20
38854;DHT22;24606;51.992;4.198;2022-07-29T17:06:00;30.90;48.90
38854;DHT22;24606;51.992;4.198;2022-07-29T17:11:02;30.90;48.70
38854;DHT22;24606;51.992;4.198;2022-07-29T17:16:06;30.90;49.10
38854;DHT22;24606;51.992;4.198;2022-07-29T17:21:08;30.90;49.00
38854;DHT22;24606;51.992;4.198;2022-07-29T17:26:09;30.90;47.90
38854;DHT22;24606;51.992;4.198;2022-07-29T17:31:13;30.90;48.10
38854;DHT22;24606;51.992;4.198;2022-07-29T17:36:14;30.90;48.00
38854;DHT22;24606;51.992;4.198;2022-07-29T17:41:26;31.00;49.00
38854;DHT22;24606;51.992;4.198;2022-07-29T17:46:29;31.00;48.00
38854;DHT22;24606;51.992;4.198;2022-07-29T17:51:32;31.00;47.70
38854;DHT22;24606;51.992;4.198;2022-07-29T17:56:33;31.00;47.60
38854;DHT22;24606;51.992;4.198;2022-07-29T18:01:37;31.00;47.90
38854;DHT22;24606;51.992;4.198;2022-07-29T18:06:40;31.00;47.80
38854;DHT22;24606;51.992;4.198;2022-07-29T18:11:42;31.00;47.80
38854;DHT22;24606;51.992;4.198;2022-07-29T18:16:47;31.00;47.50
38854;DHT22;24606;51.992;4.198;2022-07-29T18:21:49;30.90;47.00
38854;DHT22;24606;51.992;4.198;2022-07-29T18:26:50;30.90;46.70
38854;DHT22;24606;51.992;4.198;2022-07-29T18:31:53;30.90;46.90
38854;DHT22;24606;51.992;4.198;2022-07-29T18:36:55;30.90;47.00
38854;DHT22;24606;51.992;4.198;2022-07-29T18:41:57;31.00;47.30
38854;DHT22;24606;51.992;4.198;2022-07-29T18:47:00;30.90;47.00
38854;DHT22;24606;51.992;4.198;2022-07-29T18:52:03;31.00;47.20
38854;DHT22;24606;51.992;4.198;2022-07-29T18:57:05;30.90;46.90
38854;DHT22;24606;51.992;4.198;2022-07-29T19:02:08;30.90;47.00
38854;DHT22;24606;51.992;4.198;2022-07-29T19:07:10;30.80;46.40
38854;DHT22;24606;51.992;4.198;2022-07-29T19:12:12;30.70;46.20
38854;DHT22;24606;51.992;4.198;2022-07-29T19:17:15;30.70;46.30
38854;DHT22;24606;51.992;4.198;2022-07-29T19:22:17;30.60;46.20
38854;DHT22;24606;51.992;4.198;2022-07-29T19:27:19;30.50;46.50
38854;DHT22;24606;51.992;4.198;2022-07-29T19:32:22;30.60;46.50
38854;DHT22;24606;51.992;4.198;2022-07-29T19:37:24;30.50;46.40
38854;DHT22;24606;51.992;4.198;2022-07-29T19:42:26;30.50;46.50
38854;DHT22;24606;51.992;4.198;2022-07-29T19:47:29;30.40;46.60
38854;DHT22;24606;51.992;4.198;2022-07-29T19:52:31;30.40;46.70
38854;DHT22;24606;51.992;4.198;2022-07-29T19:57:33;30.40;46.70
38854;DHT22;24606;51.992;4.198;2022-07-29T20:02:37;30.40;46.80
38854;DHT22;24606;51.992;4.198;2022-07-29T20:07:39;30.30;46.90
38854;DHT22;24606;51.992;4.198;2022-07-29T20:12:41;30.30;46.90
38854;DHT22;24606;51.992;4.198;2022-07-29T20:17:44;30.30;47.00
38854;DHT22;24606;51.992;4.198;2022-07-29T20:22:46;30.30;46.90
38854;DHT22;24606;51.992;4.198;2022-07-29T20:27:48;30.30;46.90
38854;DHT22;24606;51.992;4.198;2022-07-29T20:32:53;30.30;47.00
38854;DHT22;24606;51.992;4.198;2022-07-29T20:37:55;30.20;47.00
38854;DHT22;24606;51.992;4.198;2022-07-29T20:42:56;30.10;47.00
38854;DHT22;24606;51.992;4.198;2022-07-29T20:48:00;30.20;47.10
38854;DHT22;24606;51.992;4.198;2022-07-29T20:53:02;30.20;47.10
38854;DHT22;24606;51.992;4.198;2022-07-29T20:58:04;30.20;47.10
38854;DHT22;24606;51.992;4.198;2022-07-29T21:03:07;30.10;47.00
38854;DHT22;24606;51.992;4.198;2022-07-29T21:08:09;30.10;47.20
38854;DHT22;24606;51.992;4.198;2022-07-29T21:13:11;30.00;47.00
38854;DHT22;24606;51.992;4.198;2022-07-29T21:18:15;30.00;47.10
38854;DHT22;24606;51.992;4.198;2022-07-29T21:23:27;30.00;47.00
38854;DHT22;24606;51.992;4.198;2022-07-29T21:28:29;29.90;47.00
38854;DHT22;24606;51.992;4.198;2022-07-29T21:33:38;29.90;47.10
38854;DHT22;24606;51.992;4.198;2022-07-29T21:38:41;29.90;47.20
38854;DHT22;24606;51.992;4.198;2022-07-29T21:43:42;29.90;47.10
38854;DHT22;24606;51.992;4.198;2022-07-29T21:48:46;29.80;47.20
38854;DHT22;24606;51.992;4.198;2022-07-29T21:53:48;29.80;47.20
38854;DHT22;24606;51.992;4.198;2022-07-29T21:58:51;29.70;47.20
38854;DHT22;24606;51.992;4.198;2022-07-29T22:03:54;29.70;47.20
38854;DHT22;24606;51.992;4.198;2022-07-29T22:08:56;29.60;47.20
38854;DHT22;24606;51.992;4.198;2022-07-29T22:13:57;29.60;47.30
38854;DHT22;24606;51.992;4.198;2022-07-29T22:19:01;29.60;47.30
38854;DHT22;24606;51.992;4.198;2022-07-29T22:24:04;29.60;47.40
38854;DHT22;24606;51.992;4.198;2022-07-29T22:29:06;29.50;47.30
38854;DHT22;24606;51.992;4.198;2022-07-29T22:34:09;29.50;47.40
38854;DHT22;24606;51.992;4.198;2022-07-29T22:39:12;29.50;47.40
38854;DHT22;24606;51.992;4.198;2022-07-29T22:44:14;29.40;47.40
38854;DHT22;24606;51.992;4.198;2022-07-29T22:49:18;29.30;47.40
38854;DHT22;24606;51.992;4.198;2022-07-29T22:54:20;29.30;47.50
38854;DHT22;24606;51.992;4.198;2022-07-29T22:59:21;29.30;47.50
38854;DHT22;24606;51.992;4.198;2022-07-29T23:04:25;29.20;47.50
38854;DHT22;24606;51.992;4.198;2022-07-29T23:09:26;29.20;47.50
38854;DHT22;24606;51.992;4.198;2022-07-29T23:14:29;29.20;47.60
38854;DHT22;24606;51.992;4.198;2022-07-29T23:19:32;29.10;47.60
38854;DHT22;24606;51.992;4.198;2022-07-29T23:24:34;29.10;47.60
38854;DHT22;24606;51.992;4.198;2022-07-29T23:29:36;29.00;47.70
38854;DHT22;24606;51.992;4.198;2022-07-29T23:34:39;29.10;47.70
38854;DHT22;24606;51.992;4.198;2022-07-29T23:39:41;29.00;47.70
38854;DHT22;24606;51.992;4.198;2022-07-29T23:44:43;29.00;47.80
38854;DHT22;24606;51.992;4.198;2022-07-29T23:49:46;28.90;47.70
38854;DHT22;24606;51.992;4.198;2022-07-29T23:54:49;28.90;47.70
38854;DHT22;24606;51.992;4.198;2022-07-29T23:59:53;28.90;47.80
